Time;durP1;ratioP1;P1;durP2;ratioP2;P2;SDS_P1;SDS_P2;PMS_P1;PMS_P2;Temp;Humidity;BMP_temperature;BMP_pressure;BME280_temperature;BME280_humidity;BME280_pressure;Samples;Min_cycle;Max_cycle;Signal;HPM_P1;HPM_P2
2022/01/31 00:01:54;;;;;;;36.20;7.10;;;;;;;;;;6239083;28;20480;-60
2022/01/31 00:04:55;;;;;;;27.58;4.35;;;;;;;;;;6240529;28;20148;-61
2022/01/31 00:07:56;;;;;;;20.42;4.47;;;;;;;;;;6239407;28;20046;-63
2022/01/31 00:10:57;;;;;;;28.10;6.15;;;;;;;;;;6239899;28;20411;-62
2022/01/31 00:14:02;;;;;;;37.78;5.80;;;;;;;;;;6236865;28;20073;-62
2022/01/31 00:17:04;;;;;;;31.02;4.80;;;;;;;;;;6240547;28;20077;-63
2022/01/31 00:20:05;;;;;;;23.48;4.60;;;;;;;;;;6225132;28;20056;-63
2022/01/31 00:23:06;;;;;;;24.98;4.45;;;;;;;;;;6235546;28;20045;-63
2022/01/31 00:26:06;;;;;;;26.83;4.63;;;;;;;;;;6234748;28;20904;-63
2022/01/31 00:29:07;;;;;;;24.20;5.00;;;;;;;;;;6234167;28;20143;-63
2022/01/31 00:32:07;;;;;;;22.27;4.93;;;;;;;;;;6234087;28;20503;-63
2022/01/31 00:35:09;;;;;;;21.08;4.25;;;;;;;;;;6236495;28;20500;-61
2022/01/31 00:38:10;;;;;;;17.67;4.30;;;;;;;;;;6235449;28;20068;-62
2022/01/31 00:41:11;;;;;;;23.25;4.32;;;;;;;;;;6235448;28;20045;-61
2022/01/31 00:44:22;;;;;;;20.10;3.88;;;;;;;;;;6233774;28;20053;-62
2022/01/31 00:47:27;;;;;;;29.80;4.10;;;;;;;;;;6231759;28;20057;-62
2022/01/31 00:50:30;;;;;;;30.40;5.88;;;;;;;;;;6233540;28;20810;-62
2022/01/31 00:53:31;;;;;;;21.17;4.35;;;;;;;;;;6230735;28;20045;-62
2022/01/31 00:56:31;;;;;;;27.55;5.40;;;;;;;;;;6234205;28;20133;-62
2022/01/31 00:59:32;;;;;;;22.40;3.90;;;;;;;;;;6233458;28;20382;-63
2022/01/31 01:02:33;;;;;;;27.33;4.47;;;;;;;;;;6235040;28;20047;-62
2022/01/31 01:05:34;;;;;;;22.25;4.28;;;;;;;;;;6235424;28;20096;-62
2022/01/31 01:08:34;;;;;;;26.20;3.75;;;;;;;;;;6232605;28;20057;-62
2022/01/31 01:11:35;;;;;;;23.00;3.85;;;;;;;;;;6234045;28;20084;-62
2022/01/31 01:14:36;;;;;;;23.95;3.70;;;;;;;;;;6230500;28;20427;-62
2022/01/31 01:17:37;;;;;;;17.80;3.83;;;;;;;;;;6230988;28;20095;-63
2022/01/31 01:20:38;;;;;;;28.05;4.50;;;;;;;;;;6237993;28;20055;-62
2022/01/31 01:23:39;;;;;;;29.17;4.13;;;;;;;;;;6234866;28;20042;-62
2022/01/31 01:26:39;;;;;;;20.23;4.50;;;;;;;;;;6237414;28;20116;-62
2022/01/31 01:29:40;;;;;;;20.25;3.53;;;;;;;;;;6236041;28;20046;-63
2022/01/31 01:35:58;;;;;;;19.85;3.15;;;;;;;;;;6234857;28;20061;-62
2022/01/31 01:39:00;;;;;;;28.40;4.25;;;;;;;;;;6239878;28;20471;-62
2022/01/31 01:42:00;;;;;;;19.42;2.90;;;;;;;;;;6240521;28;20075;-62
2022/01/31 01:45:01;;;;;;;21.35;3.30;;;;;;;;;;6241955;28;20045;-62
2022/01/31 01:48:06;;;;;;;23.15;4.03;;;;;;;;;;6240827;28;20042;-61
2022/01/31 01:51:06;;;;;;;12.27;3.33;;;;;;;;;;6232615;28;20484;-62
2022/01/31 01:54:07;;;;;;;19.10;3.38;;;;;;;;;;6238036;28;20056;-62
2022/01/31 01:57:08;;;;;;;28.38;3.42;;;;;;;;;;6241950;28;20053;-62
2022/01/31 02:00:15;;;;;;;15.20;3.25;;;;;;;;;;6237660;28;20420;-62
2022/01/31 02:03:18;;;;;;;14.23;2.75;;;;;;;;;;6235239;28;20053;-60
2022/01/31 02:06:18;;;;;;;;;;;;;;;;;;6239586;28;20045;-62
2022/01/31 02:09:25;;;;;;;12.88;2.72;;;;;;;;;;6227259;28;20052;-63
2022/01/31 02:12:40;;;;;;;14.68;2.92;;;;;;;;;;6246713;28;20052;-62
2022/01/31 02:15:46;;;;;;;16.17;2.80;;;;;;;;;;6235808;28;20065;-62
2022/01/31 02:18:50;;;;;;;15.68;2.50;;;;;;;;;;6240898;28;20049;-62
2022/01/31 02:21:53;;;;;;;14.23;2.97;;;;;;;;;;6239006;28;20037;-62
2022/01/31 02:24:54;;;;;;;19.17;2.80;;;;;;;;;;6237848;28;20067;-62
2022/01/31 02:27:54;;;;;;;17.60;3.08;;;;;;;;;;6236241;28;20132;-62
2022/01/31 02:30:56;;;;;;;16.80;3.53;;;;;;;;;;6238524;28;20076;-62
2022/01/31 02:33:57;;;;;;;24.23;4.35;;;;;;;;;;6235633;28;20358;-61
2022/01/31 02:36:57;;;;;;;22.50;3.17;;;;;;;;;;6235658;28;20044;-62
2022/01/31 02:39:58;;;;;;;19.73;3.53;;;;;;;;;;6238211;28;20060;-62
2022/01/31 02:42:59;;;;;;;18.45;3.42;;;;;;;;;;6240785;28;20060;-62
2022/01/31 02:46:01;;;;;;;18.90;3.17;;;;;;;;;;6237563;28;20045;-62
2022/01/31 02:49:02;;;;;;;18.80;3.70;;;;;;;;;;6238580;28;20128;-62
2022/01/31 02:52:05;;;;;;;19.52;3.35;;;;;;;;;;6237881;28;20099;-61
2022/01/31 02:55:07;;;;;;;24.38;3.97;;;;;;;;;;6238574;28;20074;-62
2022/01/31 02:58:08;;;;;;;20.27;3.90;;;;;;;;;;6236650;28;20049;-62
2022/01/31 03:01:08;;;;;;;15.40;3.15;;;;;;;;;;6234147;28;20191;-62
2022/01/31 03:04:09;;;;;;;19.40;3.63;;;;;;;;;;6247035;28;20073;-62
2022/01/31 03:07:10;;;;;;;17.38;3.17;;;;;;;;;;6238372;28;20051;-62
2022/01/31 03:10:10;;;;;;;17.60;3.25;;;;;;;;;;6236946;28;20049;-62
2022/01/31 03:13:11;;;;;;;19.98;3.08;;;;;;;;;;6235926;28;20069;-61
2022/01/31 03:16:12;;;;;;;17.35;3.53;;;;;;;;;;6234658;28;20041;-62
2022/01/31 03:19:15;;;;;;;17.08;4.30;;;;;;;;;;6235418;28;20099;-62
2022/01/31 03:22:19;;;;;;;18.65;3.83;;;;;;;;;;6234304;28;20094;-62
2022/01/31 03:25:20;;;;;;;19.30;3.15;;;;;;;;;;6238245;28;21124;-62
2022/01/31 03:28:20;;;;;;;19.38;3.13;;;;;;;;;;6235193;28;20115;-62
2022/01/31 03:31:22;;;;;;;16.83;4.78;;;;;;;;;;6233944;28;20080;-62
2022/01/31 03:34:22;;;;;;;21.20;3.78;;;;;;;;;;6234035;28;20497;-62
2022/01/31 03:37:23;;;;;;;17.70;3.80;;;;;;;;;;6234971;28;20049;-63
2022/01/31 03:40:23;;;;;;;17.55;3.30;;;;;;;;;;6237105;28;20172;-62
2022/01/31 03:43:25;;;;;;;13.38;3.58;;;;;;;;;;6234416;28;20060;-62
2022/01/31 03:46:26;;;;;;;22.15;4.60;;;;;;;;;;6235951;28;20045;-62
2022/01/31 03:49:26;;;;;;;17.88;3.38;;;;;;;;;;6240463;28;20476;-62
2022/01/31 03:52:27;;;;;;;13.20;3.13;;;;;;;;;;6236384;28;20365;-62
2022/01/31 03:55:28;;;;;;;12.52;4.20;;;;;;;;;;6234801;28;20044;-62
2022/01/31 03:58:28;;;;;;;15.55;3.75;;;;;;;;;;6237191;28;20096;-62
2022/01/31 04:01:29;;;;;;;20.90;4.85;;;;;;;;;;6232441;28;20424;-62
2022/01/31 04:04:30;;;;;;;16.75;3.90;;;;;;;;;;6233856;28;20045;-62
2022/01/31 04:07:31;;;;;;;18.50;3.78;;;;;;;;;;6239338;28;20065;-62
2022/01/31 04:10:31;;;;;;;20.17;4.25;;;;;;;;;;6253524;28;20131;-62
2022/01/31 04:13:32;;;;;;;19.50;4.55;;;;;;;;;;6239926;28;20489;-61
2022/01/31 04:16:33;;;;;;;17.92;4.28;;;;;;;;;;6241124;28;20172;-62
2022/01/31 04:19:34;;;;;;;25.00;5.72;;;;;;;;;;6238805;28;20049;-61
2022/01/31 04:23:05;;;;;;;19.38;3.50;;;;;;;;;;6244978;28;20049;-62
2022/01/31 04:26:08;;;;;;;18.25;3.28;;;;;;;;;;6234618;28;20073;-62
2022/01/31 04:29:14;;;;;;;23.42;4.35;;;;;;;;;;6233875;28;20053;-62
2022/01/31 04:32:15;;;;;;;24.02;4.50;;;;;;;;;;6227374;28;20054;-62
2022/01/31 04:35:16;;;;;;;23.63;4.15;;;;;;;;;;6230336;28;20199;-61
2022/01/31 04:38:17;;;;;;;26.33;4.57;;;;;;;;;;6236986;28;20080;-62
2022/01/31 04:41:18;;;;;;;22.40;4.90;;;;;;;;;;6235306;28;20056;-62
2022/01/31 04:44:19;;;;;;;25.50;4.20;;;;;;;;;;6233553;28;20049;-62
2022/01/31 04:47:19;;;;;;;21.10;4.60;;;;;;;;;;6239072;28;20889;-61
2022/01/31 04:50:20;;;;;;;21.58;5.00;;;;;;;;;;6228205;28;20073;-62
2022/01/31 04:53:21;;;;;;;25.48;5.57;;;;;;;;;;6237204;28;20609;-63
2022/01/31 04:56:22;;;;;;;22.17;4.97;;;;;;;;;;6239091;28;20075;-62
2022/01/31 04:59:22;;;;;;;19.88;4.18;;;;;;;;;;6232321;28;20132;-62
2022/01/31 05:02:24;;;;;;;24.95;5.22;;;;;;;;;;6235564;28;20550;-62
2022/01/31 05:05:25;;;;;;;20.48;4.22;;;;;;;;;;6233652;28;20072;-62
2022/01/31 05:08:28;;;;;;;28.70;6.60;;;;;;;;;;6234681;28;20332;-62
2022/01/31 05:11:29;;;;;;;23.15;4.65;;;;;;;;;;6233659;28;20060;-62
2022/01/31 05:14:30;;;;;;;26.25;4.88;;;;;;;;;;6240361;28;20057;-63
2022/01/31 05:17:30;;;;;;;22.33;4.25;;;;;;;;;;6238044;28;20143;-62
2022/01/31 05:20:31;;;;;;;28.67;4.90;;;;;;;;;;6238021;28;20049;-62
2022/01/31 05:23:32;;;;;;;25.27;4.32;;;;;;;;;;6240280;28;20057;-62
2022/01/31 05:26:33;;;;;;;27.73;6.15;;;;;;;;;;6238320;28;20064;-62
2022/01/31 05:29:34;;;;;;;21.38;4.32;;;;;;;;;;6240607;28;20903;-62
2022/01/31 05:32:35;;;;;;;27.52;5.43;;;;;;;;;;6238028;28;20046;-61
2022/01/31 05:35:36;;;;;;;20.00;4.50;;;;;;;;;;6237401;28;20059;-62
2022/01/31 05:38:39;;;;;;;26.15;4.63;;;;;;;;;;6239418;28;20048;-61
2022/01/31 05:41:39;;;;;;;29.15;6.40;;;;;;;;;;6240036;28;20373;-62
2022/01/31 05:44:42;;;;;;;18.23;4.38;;;;;;;;;;6239502;28;20118;-63
2022/01/31 05:47:42;;;;;;;36.30;5.47;;;;;;;;;;6241090;28;20049;-62
2022/01/31 05:50:43;;;;;;;28.17;4.97;;;;;;;;;;6241801;28;20065;-61
2022/01/31 05:53:45;;;;;;;25.55;5.60;;;;;;;;;;6241664;28;20072;-61
2022/01/31 05:56:47;;;;;;;30.63;5.68;;;;;;;;;;6243640;28;20053;-61
2022/01/31 05:59:47;;;;;;;36.95;7.43;;;;;;;;;;6242620;28;20481;-61
2022/01/31 06:02:56;;;;;;;28.38;7.85;;;;;;;;;;6241718;28;20496;-60
2022/01/31 06:05:56;;;;;;;27.73;7.05;;;;;;;;;;6234993;28;20041;-62
2022/01/31 06:08:57;;;;;;;33.42;9.00;;;;;;;;;;6240277;28;20041;-60
2022/01/31 06:12:01;;;;;;;36.83;9.10;;;;;;;;;;6236592;28;20226;-61
2022/01/31 06:15:02;;;;;;;34.72;8.23;;;;;;;;;;6236004;28;20056;-62
2022/01/31 06:18:03;;;;;;;44.47;9.15;;;;;;;;;;6237325;28;20128;-61
2022/01/31 06:21:04;;;;;;;38.22;8.52;;;;;;;;;;6242138;28;20045;-61
2022/01/31 06:24:09;;;;;;;31.83;8.65;;;;;;;;;;6238322;28;20068;-62
2022/01/31 06:27:10;;;;;;;33.97;9.27;;;;;;;;;;6237315;28;20140;-61
2022/01/31 06:30:11;;;;;;;35.20;8.77;;;;;;;;;;6237709;28;20045;-62
2022/01/31 06:33:16;;;;;;;30.70;8.30;;;;;;;;;;6235106;28;20085;-62
2022/01/31 06:36:16;;;;;;;44.75;8.38;;;;;;;;;;6235850;28;20049;-63
2022/01/31 06:39:17;;;;;;;34.83;8.32;;;;;;;;;;6231255;28;20050;-62
2022/01/31 06:42:18;;;;;;;34.85;8.15;;;;;;;;;;6236299;28;20391;-61
2022/01/31 06:45:19;;;;;;;40.53;8.93;;;;;;;;;;6240828;28;20067;-63
2022/01/31 06:48:19;;;;;;;39.38;9.73;;;;;;;;;;6241124;28;20056;-62
2022/01/31 06:51:20;;;;;;;35.50;8.25;;;;;;;;;;6243501;28;20495;-62
2022/01/31 06:54:20;;;;;;;29.33;7.45;;;;;;;;;;6240981;28;20520;-62
2022/01/31 06:57:23;;;;;;;29.70;7.15;;;;;;;;;;6240684;28;20549;-62
2022/01/31 07:00:24;;;;;;;25.35;5.35;;;;;;;;;;6242701;28;20168;-63
2022/01/31 07:03:25;;;;;;;27.27;6.78;;;;;;;;;;6242914;28;20420;-62
2022/01/31 07:06:26;;;;;;;32.92;7.05;;;;;;;;;;6243986;28;20038;-63
2022/01/31 07:09:27;;;;;;;26.88;7.47;;;;;;;;;;6239671;28;20034;-64
2022/01/31 07:12:32;;;;;;;31.43;5.77;;;;;;;;;;6240668;28;20453;-63
2022/01/31 07:15:33;;;;;;;29.27;6.65;;;;;;;;;;6245479;28;20041;-63
2022/01/31 07:18:35;;;;;;;26.75;6.65;;;;;;;;;;6242538;28;21056;-63
2022/01/31 07:21:46;;;;;;;22.58;5.72;;;;;;;;;;6241921;28;20072;-63
2022/01/31 07:25:01;;;;;;;31.35;7.03;;;;;;;;;;6240709;28;20059;-62
2022/01/31 07:28:08;;;;;;;29.15;6.93;;;;;;;;;;6238321;28;20069;-63
2022/01/31 07:31:11;;;;;;;26.27;7.35;;;;;;;;;;6240401;28;20088;-63
2022/01/31 07:34:14;;;;;;;27.40;6.65;;;;;;;;;;6236148;28;20091;-62
2022/01/31 07:37:15;;;;;;;31.30;6.78;;;;;;;;;;6238182;28;20041;-63
2022/01/31 07:40:15;;;;;;;34.58;6.88;;;;;;;;;;6237622;28;20072;-63
2022/01/31 07:43:16;;;;;;;45.70;14.57;;;;;;;;;;6237363;28;20052;-62
2022/01/31 07:46:17;;;;;;;39.67;12.13;;;;;;;;;;6243294;28;20136;-62
2022/01/31 07:49:20;;;;;;;29.27;7.82;;;;;;;;;;6240257;28;20522;-63
2022/01/31 07:52:22;;;;;;;39.25;8.40;;;;;;;;;;6240286;28;20045;-62
2022/01/31 07:55:22;;;;;;;36.00;9.50;;;;;;;;;;6240909;28;20124;-63
2022/01/31 07:58:23;;;;;;;43.75;10.98;;;;;;;;;;6239493;28;20052;-62
2022/01/31 08:01:26;;;;;;;41.90;10.52;;;;;;;;;;6242245;28;20185;-63
2022/01/31 08:04:27;;;;;;;38.13;10.30;;;;;;;;;;6238259;28;20048;-63
2022/01/31 08:07:27;;;;;;;50.38;15.82;;;;;;;;;;6239963;28;20152;-63
2022/01/31 08:10:28;;;;;;;56.78;20.30;;;;;;;;;;6239516;28;20038;-64
2022/01/31 08:13:29;;;;;;;37.15;11.13;;;;;;;;;;6242734;28;20049;-64
2022/01/31 08:16:29;;;;;;;36.58;10.23;;;;;;;;;;6255685;28;20073;-63
2022/01/31 08:19:30;;;;;;;47.67;13.15;;;;;;;;;;6251792;28;20055;-64
2022/01/31 08:22:31;;;;;;;45.28;10.48;;;;;;;;;;6244554;28;20073;-63
2022/01/31 08:25:35;;;;;;;44.55;12.40;;;;;;;;;;6245136;28;20067;-62
2022/01/31 08:28:40;;;;;;;52.85;12.45;;;;;;;;;;6241327;28;20053;-62
2022/01/31 08:31:41;;;;;;;64.15;17.60;;;;;;;;;;6235412;28;20053;-62
2022/01/31 08:38:01;;;;;;;53.60;13.43;;;;;;;;;;6233568;28;20037;-61
2022/01/31 08:41:03;;;;;;;53.55;16.80;;;;;;;;;;6229728;28;20084;-61
2022/01/31 08:44:05;;;;;;;43.33;12.63;;;;;;;;;;6233201;28;20057;-62
2022/01/31 08:47:06;;;;;;;49.60;13.82;;;;;;;;;;6237529;28;20041;-63
2022/01/31 08:50:08;;;;;;;44.13;12.48;;;;;;;;;;6236286;28;20045;-61
2022/01/31 08:53:09;;;;;;;49.80;13.98;;;;;;;;;;6238238;28;20077;-61
2022/01/31 08:56:12;;;;;;;45.97;12.40;;;;;;;;;;6239359;28;20060;-63
2022/01/31 08:59:18;;;;;;;53.38;12.88;;;;;;;;;;6238856;28;20091;-62
2022/01/31 09:02:26;;;;;;;55.00;12.32;;;;;;;;;;6242246;28;20064;-60
2022/01/31 09:05:26;;;;;;;40.80;11.23;;;;;;;;;;6239231;28;20049;-62
2022/01/31 09:08:27;;;;;;;47.63;12.27;;;;;;;;;;6244849;28;20464;-64
2022/01/31 09:11:29;;;;;;;45.55;11.23;;;;;;;;;;6243063;28;20773;-62
2022/01/31 09:14:29;;;;;;;46.28;11.55;;;;;;;;;;6246911;28;20495;-62
2022/01/31 09:17:30;;;;;;;47.33;13.27;;;;;;;;;;6242473;28;20083;-63
2022/01/31 09:20:30;;;;;;;57.95;12.57;;;;;;;;;;6240769;28;20046;-62
2022/01/31 09:23:31;;;;;;;45.95;11.43;;;;;;;;;;6244445;28;20069;-64
2022/01/31 09:26:32;;;;;;;53.15;12.07;;;;;;;;;;6242128;28;20049;-63
2022/01/31 09:29:33;;;;;;;77.47;26.00;;;;;;;;;;6243309;28;20037;-64
2022/01/31 09:32:35;;;;;;;47.95;11.85;;;;;;;;;;6244311;28;20057;-63
2022/01/31 09:35:36;;;;;;;46.78;13.73;;;;;;;;;;6243347;28;20077;-63
2022/01/31 09:38:36;;;;;;;48.58;12.60;;;;;;;;;;6244787;28;20171;-64
2022/01/31 09:41:40;;;;;;;50.35;14.57;;;;;;;;;;6242696;28;20057;-63
2022/01/31 09:51:10;;;;;;;47.00;12.02;;;;;;;;;;6242703;28;20128;-62
2022/01/31 09:54:12;;;;;;;37.05;10.90;;;;;;;;;;6228958;28;20164;-63
2022/01/31 09:57:12;;;;;;;49.50;12.90;;;;;;;;;;6227983;28;20071;-61
2022/01/31 10:00:14;;;;;;;43.67;11.60;;;;;;;;;;6225381;28;20054;-61
2022/01/31 10:03:15;;;;;;;43.13;10.25;;;;;;;;;;6226959;28;20064;-64
2022/01/31 10:06:26;;;;;;;49.25;12.35;;;;;;;;;;6222884;28;20057;-64
2022/01/31 10:09:30;;;;;;;54.10;10.98;;;;;;;;;;6225384;28;20049;-62
2022/01/31 10:19:27;;;;;;;46.00;11.43;;;;;;;;;;6224448;28;20087;-61
2022/01/31 10:22:32;;;;;;;45.25;11.00;;;;;;;;;;6227238;28;20499;-63
2022/01/31 10:25:33;;;;;;;47.03;11.25;;;;;;;;;;6221335;28;20119;-64
2022/01/31 10:28:38;;;;;;;44.88;11.70;;;;;;;;;;6227552;28;20774;-61
2022/01/31 10:31:53;;;;;;;48.50;16.00;;;;;;;;;;6232211;28;20088;-60
2022/01/31 10:34:57;;;;;;;47.75;11.90;;;;;;;;;;6228331;28;20045;-62
2022/01/31 10:38:03;;;;;;;48.45;14.00;;;;;;;;;;6230455;28;20041;-63
2022/01/31 10:45:20;;;;;;;59.75;16.77;;;;;;;;;;6224524;28;20128;-60
2022/01/31 10:57:22;;;;;;;39.97;11.23;;;;;;;;;;6224995;28;20199;-63
2022/01/31 11:00:30;;;;;;;50.20;11.40;;;;;;;;;;6223785;28;20125;-63
2022/01/31 11:03:33;;;;;;;41.65;10.88;;;;;;;;;;6226619;28;20164;-61
2022/01/31 11:06:34;;;;;;;52.92;16.98;;;;;;;;;;6226404;28;20179;-61
2022/01/31 11:09:35;;;;;;;54.42;13.40;;;;;;;;;;6223529;28;20459;-60
2022/01/31 11:12:35;;;;;;;53.38;16.13;;;;;;;;;;6225156;28;20523;-61
2022/01/31 11:15:37;;;;;;;49.53;11.00;;;;;;;;;;6228239;28;20156;-59
2022/01/31 11:18:42;;;;;;;44.30;11.90;;;;;;;;;;6230114;28;20708;-59
2022/01/31 11:21:47;;;;;;;51.20;11.98;;;;;;;;;;6223816;28;20160;-60
2022/01/31 11:24:51;;;;;;;46.47;10.35;;;;;;;;;;6224026;28;20434;-63
2022/01/31 11:27:54;;;;;;;41.25;9.95;;;;;;;;;;6227611;28;20683;-62
2022/01/31 11:30:55;;;;;;;34.55;8.80;;;;;;;;;;6228476;28;20080;-62
2022/01/31 11:33:58;;;;;;;40.33;9.63;;;;;;;;;;6227978;28;20123;-60
2022/01/31 11:37:00;;;;;;;43.28;11.10;;;;;;;;;;6229584;28;20104;-60
2022/01/31 11:40:06;;;;;;;39.47;9.40;;;;;;;;;;6229070;28;20164;-62
2022/01/31 11:43:08;;;;;;;49.35;8.77;;;;;;;;;;6229553;28;20507;-63
2022/01/31 11:46:09;;;;;;;;;;;;;;;;;;6225789;28;20662;-64
2022/01/31 11:49:12;;;;;;;25.80;7.38;;;;;;;;;;6230412;28;19940;-62
2022/01/31 11:52:15;;;;;;;37.60;7.70;;;;;;;;;;6229820;28;20175;-63
2022/01/31 11:55:18;;;;;;;56.80;15.20;;;;;;;;;;6228014;28;20083;-62
2022/01/31 11:58:19;;;;;;;46.60;9.70;;;;;;;;;;6230283;28;20077;-62
2022/01/31 12:01:23;;;;;;;37.20;9.13;;;;;;;;;;6229325;28;20710;-62
2022/01/31 12:04:31;;;;;;;40.63;9.15;;;;;;;;;;6227143;28;20080;-62
2022/01/31 12:07:32;;;;;;;33.28;8.93;;;;;;;;;;6230284;28;20072;-62
2022/01/31 12:10:41;;;;;;;37.60;9.13;;;;;;;;;;6229362;28;20065;-62
2022/01/31 12:13:50;;;;;;;30.05;8.45;;;;;;;;;;6225351;28;20064;-62
2022/01/31 12:17:09;;;;;;;43.92;9.68;;;;;;;;;;6226870;28;20091;-62
2022/01/31 12:20:25;;;;;;;35.45;8.45;;;;;;;;;;6225811;28;20056;-60
2022/01/31 12:23:28;;;;;;;33.05;7.78;;;;;;;;;;6225635;28;20034;-60
2022/01/31 12:26:32;;;;;;;37.65;9.27;;;;;;;;;;6225607;28;20913;-60
2022/01/31 12:29:38;;;;;;;39.22;8.77;;;;;;;;;;6227826;28;20038;-60
2022/01/31 12:32:39;;;;;;;36.15;8.77;;;;;;;;;;6226984;28;20474;-60
2022/01/31 12:35:40;;;;;;;49.05;9.93;;;;;;;;;;6225217;28;20061;-60
2022/01/31 12:38:41;;;;;;;29.63;8.25;;;;;;;;;;6223840;28;20045;-60
2022/01/31 12:41:42;;;;;;;44.97;9.88;;;;;;;;;;6226631;28;20055;-60
2022/01/31 12:44:46;;;;;;;46.58;9.02;;;;;;;;;;6223113;28;20049;-60
2022/01/31 12:48:05;;;;;;;29.23;7.47;;;;;;;;;;6224041;28;20057;-60
2022/01/31 12:51:08;;;;;;;42.92;9.57;;;;;;;;;;6224806;28;20460;-60
2022/01/31 12:54:20;;;;;;;35.45;8.95;;;;;;;;;;6218619;28;20065;-61
2022/01/31 12:57:21;;;;;;;42.58;9.70;;;;;;;;;;6218549;28;20049;-61
2022/01/31 13:00:38;;;;;;;43.47;10.45;;;;;;;;;;6216948;28;20117;-61
2022/01/31 13:03:45;;;;;;;39.15;8.95;;;;;;;;;;6216127;28;20049;-60
2022/01/31 13:07:00;;;;;;;39.67;9.40;;;;;;;;;;6219538;28;20049;-64
2022/01/31 13:10:09;;;;;;;39.85;9.52;;;;;;;;;;6220706;28;20255;-62
2022/01/31 13:13:10;;;;;;;36.88;8.50;;;;;;;;;;6218182;28;20203;-64
2022/01/31 13:16:12;;;;;;;43.10;8.90;;;;;;;;;;6222036;28;20053;-63
2022/01/31 13:19:15;;;;;;;39.60;9.90;;;;;;;;;;6224087;28;20131;-63
2022/01/31 13:22:25;;;;;;;48.25;9.60;;;;;;;;;;6223678;28;20095;-61
2022/01/31 13:25:27;;;;;;;39.45;11.18;;;;;;;;;;6222809;28;20053;-60
2022/01/31 13:28:28;;;;;;;49.22;10.38;;;;;;;;;;6225633;28;20045;-60
2022/01/31 13:31:40;;;;;;;51.22;10.60;;;;;;;;;;6224349;28;20144;-62
2022/01/31 13:34:43;;;;;;;39.95;9.30;;;;;;;;;;6225541;28;20049;-60
2022/01/31 13:37:56;;;;;;;53.75;9.30;;;;;;;;;;6224395;28;20465;-63
2022/01/31 13:40:58;;;;;;;37.47;8.65;;;;;;;;;;6226418;28;20536;-61
2022/01/31 13:44:03;;;;;;;32.65;9.32;;;;;;;;;;6227206;28;20514;-62
2022/01/31 13:47:04;;;;;;;36.30;9.02;;;;;;;;;;6228988;28;20079;-62
2022/01/31 13:50:22;;;;;;;37.92;9.85;;;;;;;;;;6231667;28;21181;-64
2022/01/31 13:53:34;;;;;;;43.45;10.77;;;;;;;;;;6227997;28;20148;-61
2022/01/31 13:56:37;;;;;;;47.33;9.57;;;;;;;;;;6225629;28;21034;-61
2022/01/31 13:59:38;;;;;;;33.67;8.77;;;;;;;;;;6225942;28;20053;-60
2022/01/31 14:02:40;;;;;;;47.03;9.52;;;;;;;;;;6226656;28;20041;-61
2022/01/31 14:05:52;;;;;;;43.47;9.93;;;;;;;;;;6224500;28;20517;-59
2022/01/31 14:09:02;;;;;;;43.25;11.02;;;;;;;;;;6226357;28;20065;-63
2022/01/31 14:12:15;;;;;;;44.65;10.32;;;;;;;;;;6228859;28;20118;-61
2022/01/31 14:15:18;;;;;;;44.60;10.93;;;;;;;;;;6225382;28;20144;-61
2022/01/31 14:18:20;;;;;;;45.28;11.40;;;;;;;;;;6225288;28;20052;-61
2022/01/31 14:21:22;;;;;;;47.95;9.93;;;;;;;;;;6226437;28;20605;-61
2022/01/31 14:24:27;;;;;;;;;;;;;;;;;;6226092;28;20147;-61
2022/01/31 14:27:28;;;;;;;43.95;10.35;;;;;;;;;;6223978;28;20044;-61
2022/01/31 14:30:28;;;;;;;44.83;11.10;;;;;;;;;;6224885;28;20567;-60
2022/01/31 14:33:30;;;;;;;51.45;11.93;;;;;;;;;;6226660;28;20056;-61
2022/01/31 14:36:43;;;;;;;46.65;11.27;;;;;;;;;;6225656;28;20057;-61
2022/01/31 14:40:00;;;;;;;51.42;11.88;;;;;;;;;;6228075;28;20563;-63
2022/01/31 14:47:14;;;;;;;36.80;10.13;;;;;;;;;;6225326;28;20103;-60
2022/01/31 14:50:08;;;;;;;42.78;10.43;;;;;;;;;;6223606;28;20045;-61
2022/01/31 14:53:18;;;;;;;46.70;9.48;;;;;;;;;;6221649;28;20531;-62
2022/01/31 14:56:18;;;;;;;47.25;12.27;;;;;;;;;;6225428;28;20068;-62
2022/01/31 14:59:19;;;;;;;43.47;10.98;;;;;;;;;;6229694;28;20441;-62
2022/01/31 15:02:19;;;;;;;47.95;13.00;;;;;;;;;;6229906;28;20041;-61
2022/01/31 15:05:21;;;;;;;43.40;10.88;;;;;;;;;;6230032;28;20439;-62
2022/01/31 15:08:22;;;;;;;36.88;10.63;;;;;;;;;;6230552;28;20044;-61
2022/01/31 15:11:23;;;;;;;48.17;11.30;;;;;;;;;;6231641;28;20140;-62
2022/01/31 15:14:23;;;;;;;57.13;13.93;;;;;;;;;;6230465;28;20036;-61
2022/01/31 15:17:25;;;;;;;35.75;9.38;;;;;;;;;;6230801;28;20072;-62
2022/01/31 15:20:26;;;;;;;42.00;10.87;;;;;;;;;;6230733;28;20053;-63
2022/01/31 15:23:33;;;;;;;44.50;12.48;;;;;;;;;;6228240;28;20404;-62
2022/01/31 15:26:35;;;;;;;59.72;15.98;;;;;;;;;;6229424;28;20053;-62
2022/01/31 15:29:37;;;;;;;72.03;28.52;;;;;;;;;;6230682;28;20139;-63
2022/01/31 15:32:38;;;;;;;66.30;21.73;;;;;;;;;;6230063;28;20041;-63
2022/01/31 15:35:38;;;;;;;70.45;23.48;;;;;;;;;;6228522;28;20053;-63
2022/01/31 15:38:40;;;;;;;59.55;22.67;;;;;;;;;;6231310;28;20049;-62
2022/01/31 15:41:42;;;;;;;53.75;16.40;;;;;;;;;;6229423;28;20126;-63
2022/01/31 15:44:54;;;;;;;58.78;19.50;;;;;;;;;;6223021;28;20045;-62
2022/01/31 15:47:55;;;;;;;58.72;16.67;;;;;;;;;;6225562;28;20554;-63
2022/01/31 15:50:55;;;;;;;58.72;16.50;;;;;;;;;;6223155;28;21040;-63
2022/01/31 15:53:56;;;;;;;53.15;15.57;;;;;;;;;;6226382;28;20060;-62
2022/01/31 15:56:57;;;;;;;55.55;12.20;;;;;;;;;;6225459;28;20102;-63
2022/01/31 15:59:57;;;;;;;44.08;10.18;;;;;;;;;;6225006;28;20042;-62
2022/01/31 16:03:00;;;;;;;40.85;10.25;;;;;;;;;;6224118;28;20048;-62
2022/01/31 16:06:01;;;;;;;40.63;10.07;;;;;;;;;;6221352;28;20156;-61
2022/01/31 16:09:02;;;;;;;44.35;10.27;;;;;;;;;;6225048;28;20049;-64
2022/01/31 16:12:04;;;;;;;47.50;11.85;;;;;;;;;;6222830;28;20497;-62
2022/01/31 16:15:06;;;;;;;47.03;12.23;;;;;;;;;;6223189;28;20111;-62
2022/01/31 16:18:07;;;;;;;62.25;13.63;;;;;;;;;;6223547;28;20170;-61
2022/01/31 16:21:11;;;;;;;48.15;11.68;;;;;;;;;;6225439;28;20072;-69
2022/01/31 16:24:12;;;;;;;51.70;12.68;;;;;;;;;;6226929;28;20140;-74
2022/01/31 16:27:16;;;;;;;52.08;13.55;;;;;;;;;;6227953;28;20060;-70
2022/01/31 16:30:19;;;;;;;54.25;12.98;;;;;;;;;;6228518;28;20076;-62
2022/01/31 16:33:20;;;;;;;58.22;12.63;;;;;;;;;;6224427;28;20041;-64
2022/01/31 16:36:21;;;;;;;43.88;12.48;;;;;;;;;;6222574;28;20048;-64
2022/01/31 16:39:22;;;;;;;47.65;12.75;;;;;;;;;;6221128;28;20050;-64
2022/01/31 16:42:24;;;;;;;58.28;14.50;;;;;;;;;;6223179;28;20736;-63
2022/01/31 16:45:24;;;;;;;68.90;17.73;;;;;;;;;;6222737;28;20057;-62
2022/01/31 16:48:25;;;;;;;90.50;24.70;;;;;;;;;;6229262;28;20564;-61
2022/01/31 16:51:26;;;;;;;111.18;26.15;;;;;;;;;;6229709;28;20041;-63
2022/01/31 16:54:27;;;;;;;113.43;28.55;;;;;;;;;;6228517;28;20079;-69
2022/01/31 16:57:28;;;;;;;127.78;34.47;;;;;;;;;;6229203;28;20049;-63
2022/01/31 17:00:29;;;;;;;148.75;35.40;;;;;;;;;;6227886;28;20034;-64
2022/01/31 17:03:30;;;;;;;173.30;43.10;;;;;;;;;;6229627;28;20595;-63
2022/01/31 17:06:31;;;;;;;219.48;57.58;;;;;;;;;;6226628;28;20053;-62
2022/01/31 17:09:33;;;;;;;62.15;15.82;;;;;;;;;;6232466;28;20535;-62
2022/01/31 17:12:34;;;;;;;106.93;25.75;;;;;;;;;;6235737;28;20064;-67
2022/01/31 17:15:35;;;;;;;77.80;20.85;;;;;;;;;;6233911;28;20490;-62
2022/01/31 17:18:35;;;;;;;91.88;22.38;;;;;;;;;;6234538;28;20520;-62
2022/01/31 17:21:38;;;;;;;74.63;22.63;;;;;;;;;;6232756;28;20083;-61
2022/01/31 17:24:39;;;;;;;105.30;25.55;;;;;;;;;;6232319;28;20049;-61
2022/01/31 17:27:40;;;;;;;92.90;26.00;;;;;;;;;;6232448;28;20085;-62
2022/01/31 17:30:41;;;;;;;83.60;23.55;;;;;;;;;;6232998;28;20846;-62
2022/01/31 17:33:42;;;;;;;78.25;24.45;;;;;;;;;;6227644;28;20191;-62
2022/01/31 17:36:44;;;;;;;102.43;28.05;;;;;;;;;;6226672;28;20460;-62
2022/01/31 17:39:45;;;;;;;94.85;29.88;;;;;;;;;;6224401;28;20077;-63
2022/01/31 17:42:57;;;;;;;102.78;32.13;;;;;;;;;;6224736;28;20048;-62
2022/01/31 17:45:57;;;;;;;112.22;34.40;;;;;;;;;;6231413;28;20527;-62
2022/01/31 17:48:58;;;;;;;104.13;29.70;;;;;;;;;;6230943;28;20045;-62
2022/01/31 17:51:59;;;;;;;87.88;25.42;;;;;;;;;;6232506;28;20053;-62
2022/01/31 17:55:01;;;;;;;97.47;25.20;;;;;;;;;;6228315;28;20048;-62
2022/01/31 17:58:03;;;;;;;118.78;32.85;;;;;;;;;;6229740;28;20156;-62
2022/01/31 18:01:06;;;;;;;111.65;31.80;;;;;;;;;;6230967;28;20100;-62
2022/01/31 18:04:06;;;;;;;100.82;30.90;;;;;;;;;;6228260;28;21064;-60
2022/01/31 18:07:08;;;;;;;90.93;24.77;;;;;;;;;;6229391;28;20211;-62
2022/01/31 18:10:09;;;;;;;101.78;27.27;;;;;;;;;;6228101;28;20055;-60
2022/01/31 18:13:09;;;;;;;117.55;32.97;;;;;;;;;;6231013;28;20140;-62
2022/01/31 18:16:10;;;;;;;142.52;37.30;;;;;;;;;;6225714;28;20068;-61
2022/01/31 18:19:11;;;;;;;154.65;43.83;;;;;;;;;;6231526;28;20061;-60
2022/01/31 18:22:11;;;;;;;163.20;47.80;;;;;;;;;;6232445;28;20417;-64
2022/01/31 18:25:13;;;;;;;141.75;41.28;;;;;;;;;;6228196;28;20040;-60
2022/01/31 18:28:20;;;;;;;155.95;43.67;;;;;;;;;;6230255;28;20279;-60